createdAt,value
2024-02-18T00:02:01.996Z,9.70
2024-02-18T00:04:30.277Z,9.60
2024-02-18T00:06:57.289Z,9.70
2024-02-18T00:09:24.338Z,9.60
2024-02-18T00:11:51.457Z,9.60
2024-02-18T00:14:18.289Z,9.50
2024-02-18T00:16:45.166Z,9.50
2024-02-18T00:19:12.210Z,9.40
2024-02-18T00:21:39.083Z,9.30
2024-02-18T00:24:06.342Z,9.30
2024-02-18T00:26:43.294Z,9.30
2024-02-18T00:29:17.128Z,9.20
2024-02-18T00:31:44.142Z,9.20
2024-02-18T00:34:10.998Z,9.10
2024-02-18T00:36:38.260Z,9.10
2024-02-18T00:39:05.234Z,9.10
2024-02-18T00:41:32.348Z,9.10
2024-02-18T00:43:59.138Z,9.00
2024-02-18T00:46:38.758Z,9.00
2024-02-18T00:49:12.212Z,8.90
2024-02-18T00:51:39.324Z,9.00
2024-02-18T00:54:06.187Z,9.00
2024-02-18T00:56:32.954Z,8.90
2024-02-18T00:59:00.024Z,8.90
2024-02-18T01:01:26.959Z,8.80
2024-02-18T01:03:53.920Z,8.80
2024-02-18T01:06:20.904Z,8.80
2024-02-18T01:08:47.744Z,8.90
2024-02-18T01:11:14.633Z,8.90
2024-02-18T01:13:41.728Z,9.00
2024-02-18T01:16:08.593Z,9.10
2024-02-18T01:18:43.075Z,9.20
2024-02-18T01:21:10.606Z,9.20
2024-02-18T01:23:37.728Z,9.30
2024-02-18T01:26:05.554Z,9.30
2024-02-18T01:28:32.305Z,9.30
2024-02-18T01:30:59.312Z,9.30
2024-02-18T01:33:26.154Z,9.30
2024-02-18T01:35:52.985Z,9.30
2024-02-18T01:38:19.975Z,9.30
2024-02-18T01:40:46.835Z,9.30
2024-02-18T01:43:15.836Z,9.30
2024-02-18T01:45:42.999Z,9.30
2024-02-18T01:48:10.045Z,9.30
2024-02-18T01:50:37.252Z,9.20
2024-02-18T01:53:04.725Z,9.10
2024-02-18T01:55:35.598Z,9.20
2024-02-18T01:58:05.071Z,9.30
2024-02-18T02:00:32.249Z,9.30
2024-02-18T02:02:59.643Z,9.30
2024-02-18T02:05:27.606Z,9.30
2024-02-18T02:07:55.404Z,9.20
2024-02-18T02:10:22.864Z,9.20
2024-02-18T02:12:50.027Z,9.10
2024-02-18T02:15:17.139Z,9.00
2024-02-18T02:17:44.112Z,9.10
2024-02-18T02:20:11.573Z,9.10
2024-02-18T02:22:39.668Z,9.10
2024-02-18T02:25:10.440Z,9.10
2024-02-18T02:27:44.194Z,9.10
2024-02-18T02:30:11.835Z,9.10
2024-02-18T02:32:39.150Z,9.10
2024-02-18T02:35:07.990Z,9.10
2024-02-18T02:37:35.679Z,9.20
2024-02-18T02:40:05.425Z,9.30
2024-02-18T02:42:34.157Z,9.20
2024-02-18T02:45:01.379Z,9.20
2024-02-18T02:47:28.406Z,9.30
2024-02-18T02:49:55.489Z,9.30
2024-02-18T02:52:22.555Z,9.30
2024-02-18T02:54:49.430Z,9.20
2024-02-18T02:57:16.340Z,9.30
2024-02-18T02:59:43.905Z,9.30
2024-02-18T03:02:10.926Z,9.30
2024-02-18T03:04:37.898Z,9.30
2024-02-18T03:07:05.352Z,9.20
2024-02-18T03:09:32.258Z,9.20
2024-02-18T03:11:59.184Z,9.20
2024-02-18T03:14:26.161Z,9.20
2024-02-18T03:16:54.130Z,9.20
2024-02-18T03:19:21.336Z,9.20
2024-02-18T03:21:48.544Z,9.20
2024-02-18T03:24:15.409Z,9.10
2024-02-18T03:26:42.594Z,9.10
2024-02-18T03:29:11.825Z,9.00
2024-02-18T03:31:38.636Z,9.00
2024-02-18T03:34:05.709Z,8.90
2024-02-18T03:36:33.047Z,8.80
2024-02-18T03:39:01.054Z,8.80
2024-02-18T03:41:27.857Z,8.70
2024-02-18T03:43:54.812Z,8.80
2024-02-18T03:46:21.620Z,8.80
2024-02-18T03:48:48.450Z,8.80
2024-02-18T03:51:15.434Z,9.00
2024-02-18T03:53:42.223Z,9.00
2024-02-18T03:56:11.380Z,9.00
2024-02-18T03:58:39.487Z,9.00
2024-02-18T04:01:06.561Z,9.00
2024-02-18T04:03:33.842Z,9.10
2024-02-18T04:06:00.882Z,9.10
2024-02-18T04:08:27.689Z,9.20
2024-02-18T04:10:54.459Z,9.20
2024-02-18T04:13:21.384Z,9.30
2024-02-18T04:15:48.164Z,9.30
2024-02-18T04:18:15.335Z,9.40
2024-02-18T04:20:42.312Z,9.40
2024-02-18T04:23:09.236Z,9.30
2024-02-18T04:25:36.119Z,9.50
2024-02-18T04:28:03.315Z,9.50
2024-02-18T04:30:30.177Z,9.50
2024-02-18T04:32:56.985Z,9.50
2024-02-18T04:35:24.215Z,9.60
2024-02-18T04:37:50.957Z,9.60
2024-02-18T04:40:17.905Z,9.60
2024-02-18T04:42:44.900Z,9.60
2024-02-18T04:45:11.756Z,9.50
2024-02-18T04:47:38.520Z,9.50
2024-02-18T04:50:06.116Z,9.50
2024-02-18T04:52:32.947Z,9.50
2024-02-18T04:54:59.712Z,9.50
2024-02-18T04:57:26.835Z,9.60
2024-02-18T04:59:53.643Z,9.60
2024-02-18T05:02:21.757Z,9.60
2024-02-18T05:04:49.039Z,9.60
2024-02-18T05:07:15.824Z,9.60
2024-02-18T05:09:42.868Z,9.50
2024-02-18T05:12:09.947Z,9.60
2024-02-18T05:14:36.742Z,9.60
2024-02-18T05:17:03.638Z,9.70
2024-02-18T05:19:31.054Z,9.70
2024-02-18T05:21:57.937Z,9.70
2024-02-18T05:24:24.778Z,9.70
2024-02-18T05:26:51.723Z,9.70
2024-02-18T05:29:18.803Z,9.70
2024-02-18T05:31:45.585Z,9.70
2024-02-18T05:34:13.683Z,9.70
2024-02-18T05:36:43.018Z,9.70
2024-02-18T05:39:09.903Z,9.70
2024-02-18T05:41:37.656Z,9.70
2024-02-18T05:44:04.734Z,9.80
2024-02-18T05:46:31.461Z,9.80
2024-02-18T05:48:58.636Z,9.70
2024-02-18T05:51:25.589Z,9.80
2024-02-18T05:53:52.471Z,9.70
2024-02-18T05:56:19.379Z,9.80
2024-02-18T05:58:46.158Z,9.80
2024-02-18T06:01:14.102Z,9.80
2024-02-18T06:03:41.205Z,9.90
2024-02-18T06:06:09.905Z,9.80
2024-02-18T06:08:36.816Z,9.80
2024-02-18T06:11:09.132Z,9.80
2024-02-18T06:13:36.417Z,9.80
2024-02-18T06:16:04.513Z,9.80
2024-02-18T06:18:31.739Z,9.80
2024-02-18T06:20:58.631Z,9.70
2024-02-18T06:23:25.392Z,9.70
2024-02-18T06:25:52.602Z,9.70
2024-02-18T06:28:19.396Z,9.70
2024-02-18T06:30:46.183Z,9.70
2024-02-18T06:33:13.308Z,9.80
2024-02-18T06:35:40.278Z,9.80
2024-02-18T06:38:07.187Z,9.80
2024-02-18T06:40:34.223Z,9.80
2024-02-18T06:43:00.999Z,9.70
2024-02-18T06:45:28.105Z,9.70
2024-02-18T06:47:55.094Z,9.70
2024-02-18T06:50:21.883Z,9.70
2024-02-18T06:52:48.597Z,9.70
2024-02-18T06:55:15.847Z,9.70
2024-02-18T06:57:45.784Z,9.70
2024-02-18T07:00:13.445Z,9.70
2024-02-18T07:02:40.472Z,9.70
2024-02-18T07:05:07.602Z,9.70
2024-02-18T07:07:34.701Z,9.70
2024-02-18T07:10:01.768Z,9.70
2024-02-18T07:12:30.322Z,9.70
2024-02-18T07:14:57.192Z,9.70
2024-02-18T07:17:25.167Z,9.70
2024-02-18T07:19:52.912Z,9.70
2024-02-18T07:22:19.896Z,9.70
2024-02-18T07:24:46.964Z,9.80
2024-02-18T07:27:13.861Z,9.80
2024-02-18T07:29:40.664Z,9.80
2024-02-18T07:32:07.832Z,9.90
2024-02-18T07:34:34.746Z,9.90
2024-02-18T07:37:01.674Z,9.90
2024-02-18T07:39:30.630Z,9.90
2024-02-18T07:41:58.178Z,10.00
2024-02-18T07:44:24.960Z,10.10
2024-02-18T07:46:55.441Z,10.10
2024-02-18T07:49:23.630Z,10.10
2024-02-18T07:51:51.155Z,10.20
2024-02-18T07:54:18.382Z,10.20
2024-02-18T07:56:46.124Z,10.20
2024-02-18T07:59:13.854Z,10.20
2024-02-18T08:01:41.064Z,10.30
2024-02-18T08:04:08.088Z,10.30
2024-02-18T08:06:35.222Z,10.30
2024-02-18T08:09:02.608Z,10.30
2024-02-18T08:11:29.490Z,10.40
2024-02-18T08:13:56.758Z,10.40
2024-02-18T08:16:28.137Z,10.50
2024-02-18T08:18:55.722Z,10.50
2024-02-18T08:21:24.484Z,10.40
2024-02-18T08:23:52.387Z,10.40
2024-02-18T08:26:27.653Z,10.40
2024-02-18T08:28:55.254Z,10.40
2024-02-18T08:31:22.761Z,10.40
2024-02-18T08:33:50.501Z,10.30
2024-02-18T08:36:18.410Z,10.40
2024-02-18T08:38:45.481Z,10.40
2024-02-18T08:41:13.031Z,10.40
2024-02-18T08:43:41.944Z,10.40
2024-02-18T08:46:10.130Z,10.30
2024-02-18T08:48:40.265Z,10.40
2024-02-18T08:51:10.405Z,10.40
2024-02-18T08:53:42.095Z,10.40
2024-02-18T08:56:12.374Z,10.40
2024-02-18T08:58:39.271Z,10.40
2024-02-18T09:01:08.695Z,10.40
2024-02-18T09:03:35.591Z,10.40
2024-02-18T09:06:02.556Z,10.40
2024-02-18T09:08:29.612Z,10.40
2024-02-18T09:10:56.691Z,10.50
2024-02-18T09:13:23.581Z,10.50
2024-02-18T09:15:50.954Z,10.40
2024-02-18T09:18:18.586Z,10.40
2024-02-18T09:20:45.939Z,10.40
2024-02-18T09:23:13.254Z,10.40
2024-02-18T09:25:40.453Z,10.40
2024-02-18T09:28:08.956Z,10.50
2024-02-18T09:30:37.127Z,10.40
2024-02-18T09:33:07.160Z,10.50
2024-02-18T09:35:35.163Z,10.40
2024-02-18T09:38:04.938Z,10.50
2024-02-18T09:40:31.845Z,10.40
2024-02-18T09:42:58.809Z,10.40
2024-02-18T09:45:30.573Z,10.40
2024-02-18T09:47:58.828Z,10.30
2024-02-18T09:50:27.396Z,10.30
2024-02-18T09:52:56.177Z,10.30
2024-02-18T09:55:23.205Z,10.40
2024-02-18T09:57:50.118Z,10.40
2024-02-18T10:00:19.066Z,10.40
2024-02-18T10:02:47.292Z,10.40
2024-02-18T10:05:14.282Z,10.30
2024-02-18T10:07:41.477Z,10.30
2024-02-18T10:10:09.307Z,10.20
2024-02-18T10:12:36.434Z,10.20
2024-02-18T10:15:06.492Z,10.30
2024-02-18T10:17:34.793Z,10.30
2024-02-18T10:20:03.162Z,10.20
2024-02-18T10:22:30.900Z,10.30
2024-02-18T10:24:58.001Z,10.20
2024-02-18T10:27:25.181Z,10.20
2024-02-18T10:29:53.244Z,10.00
2024-02-18T10:32:20.631Z,10.00
2024-02-18T10:34:49.750Z,10.00
2024-02-18T10:37:40.050Z,10.00
2024-02-18T10:40:15.807Z,10.10
2024-02-18T10:42:53.434Z,10.00
2024-02-18T10:45:22.191Z,9.90
2024-02-18T10:47:54.868Z,10.00
2024-02-18T10:50:27.025Z,10.00
2024-02-18T10:53:03.821Z,10.00
2024-02-18T10:55:40.847Z,10.00
2024-02-18T10:58:28.093Z,10.00
2024-02-18T11:00:59.529Z,10.00
2024-02-18T11:03:35.758Z,10.00
2024-02-18T11:06:04.957Z,10.00
2024-02-18T11:08:34.939Z,9.90
2024-02-18T11:11:03.585Z,9.80
2024-02-18T11:13:32.761Z,9.90
2024-02-18T11:16:00.893Z,9.70
2024-02-18T11:18:30.059Z,9.80
2024-02-18T11:20:58.350Z,9.90
2024-02-18T11:23:25.326Z,9.80
2024-02-18T11:25:54.907Z,9.90
2024-02-18T11:28:21.893Z,9.60
2024-02-18T11:30:48.985Z,9.60
2024-02-18T11:33:22.168Z,9.70
2024-02-18T11:36:15.234Z,9.60
2024-02-18T11:38:44.747Z,9.60
2024-02-18T11:41:18.836Z,9.60
2024-02-18T11:43:51.316Z,9.50
2024-02-18T11:46:29.308Z,9.50
2024-02-18T11:48:57.584Z,9.50
2024-02-18T11:51:27.543Z,9.60
2024-02-18T11:53:58.087Z,9.40
2024-02-18T11:56:25.384Z,9.40
2024-02-18T11:58:52.540Z,9.40
2024-02-18T12:01:25.295Z,9.40
2024-02-18T12:03:54.806Z,9.40
2024-02-18T12:06:22.989Z,9.40
2024-02-18T12:08:49.810Z,9.50
2024-02-18T12:11:18.058Z,9.50
2024-02-18T12:13:45.577Z,9.30
2024-02-18T12:16:12.965Z,9.40
2024-02-18T12:18:40.612Z,9.30
2024-02-18T12:21:08.451Z,9.40
2024-02-18T12:23:44.533Z,9.40
2024-02-18T12:26:13.711Z,9.40
2024-02-18T12:28:41.058Z,9.40
2024-02-18T12:31:08.692Z,9.40
2024-02-18T12:33:36.126Z,9.40
2024-02-18T12:36:03.389Z,9.40
2024-02-18T12:38:30.638Z,9.50
2024-02-18T12:40:57.655Z,9.60
2024-02-18T12:44:10.569Z,9.60
2024-02-18T12:46:16.604Z,9.50
2024-02-18T12:48:44.516Z,9.50
2024-02-18T12:51:13.842Z,9.50
2024-02-18T12:53:42.570Z,9.60
2024-02-18T12:56:15.678Z,9.60
2024-02-18T12:58:42.559Z,9.70
2024-02-18T13:01:11.075Z,9.50
2024-02-18T13:03:39.927Z,9.60
2024-02-18T13:06:08.250Z,9.70
2024-02-18T13:08:35.322Z,9.80
2024-02-18T13:11:02.610Z,9.90
2024-02-18T13:13:29.716Z,10.00
2024-02-18T13:15:56.814Z,10.00
2024-02-18T13:18:24.257Z,9.90
2024-02-18T13:20:51.442Z,9.80
2024-02-18T13:23:18.304Z,9.70
2024-02-18T13:25:46.157Z,9.80
2024-02-18T13:28:14.518Z,9.90
2024-02-18T13:30:41.604Z,9.90
2024-02-18T13:33:09.149Z,9.90
2024-02-18T13:35:36.700Z,9.70
2024-02-18T13:38:03.860Z,9.90
2024-02-18T13:40:31.597Z,10.00
2024-02-18T13:42:59.452Z,10.10
2024-02-18T13:45:27.229Z,10.10
2024-02-18T13:47:58.658Z,10.10
2024-02-18T13:50:26.758Z,9.90
2024-02-18T13:52:53.725Z,9.70
2024-02-18T13:55:20.819Z,9.80
2024-02-18T13:57:47.849Z,9.80
2024-02-18T14:00:15.827Z,9.60
2024-02-18T14:02:43.742Z,9.60
2024-02-18T14:05:20.369Z,9.50
2024-02-18T14:07:47.972Z,9.50
2024-02-18T14:10:18.317Z,9.40
2024-02-18T14:12:45.435Z,9.40
2024-02-18T14:15:13.710Z,9.40
2024-02-18T14:17:42.999Z,9.30
2024-02-18T14:20:14.519Z,9.30
2024-02-18T14:22:41.827Z,9.30
2024-02-18T14:25:09.617Z,9.30
2024-02-18T14:27:36.967Z,9.30
2024-02-18T14:30:04.637Z,9.20
2024-02-18T14:32:32.055Z,9.20
2024-02-18T14:35:00.019Z,9.20
2024-02-18T14:37:28.077Z,9.20
2024-02-18T14:39:55.498Z,9.20
2024-02-18T14:42:22.696Z,9.20
2024-02-18T14:44:49.637Z,9.10
2024-02-18T14:47:16.437Z,9.00
2024-02-18T14:49:48.226Z,9.00
2024-02-18T14:52:15.589Z,9.00
2024-02-18T14:54:43.325Z,9.00
2024-02-18T14:57:10.907Z,9.00
2024-02-18T14:59:37.916Z,8.90
2024-02-18T15:02:04.780Z,9.00
2024-02-18T15:04:32.091Z,8.90
2024-02-18T15:07:04.913Z,8.90
2024-02-18T15:09:33.941Z,8.90
2024-02-18T15:12:00.995Z,8.90
2024-02-18T15:14:30.964Z,8.90
2024-02-18T15:16:58.065Z,8.80
2024-02-18T15:19:25.442Z,8.70
2024-02-18T15:21:52.577Z,8.80
2024-02-18T15:24:19.789Z,8.80
2024-02-18T15:26:47.003Z,8.70
2024-02-18T15:29:14.435Z,8.80
2024-02-18T15:31:41.753Z,8.80
2024-02-18T15:34:12.252Z,8.70
2024-02-18T15:36:44.841Z,8.70
2024-02-18T15:39:12.431Z,8.70
2024-02-18T15:41:39.446Z,8.70
2024-02-18T15:44:06.509Z,8.60
2024-02-18T15:46:33.324Z,8.70
2024-02-18T15:49:00.224Z,8.60
2024-02-18T15:51:30.361Z,8.60
2024-02-18T15:53:57.410Z,8.60
2024-02-18T15:56:29.294Z,8.60
2024-02-18T15:58:59.370Z,8.60
2024-02-18T16:01:26.536Z,8.60
2024-02-18T16:03:53.444Z,8.60
2024-02-18T16:06:20.686Z,8.50
2024-02-18T16:08:47.813Z,8.50
2024-02-18T16:11:16.781Z,8.50
2024-02-18T16:13:45.523Z,8.50
2024-02-18T16:16:13.655Z,8.50
2024-02-18T16:18:42.472Z,8.50
2024-02-18T16:21:10.843Z,8.50
2024-02-18T16:23:37.769Z,8.50
2024-02-18T16:26:06.223Z,8.40
2024-02-18T16:28:33.741Z,8.40
2024-02-18T16:31:00.757Z,8.40
2024-02-18T16:33:27.646Z,8.40
2024-02-18T16:35:54.840Z,8.40
2024-02-18T16:38:21.772Z,8.30
2024-02-18T16:40:48.676Z,8.40
2024-02-18T16:43:15.860Z,8.40
2024-02-18T16:45:42.786Z,8.30
2024-02-18T16:48:09.819Z,8.30
2024-02-18T16:50:37.639Z,8.30
2024-02-18T16:53:05.025Z,8.40
2024-02-18T16:55:32.004Z,8.40
2024-02-18T16:57:59.128Z,8.40
2024-02-18T17:00:26.106Z,8.30
2024-02-18T17:02:53.087Z,8.40
2024-02-18T17:05:20.303Z,8.40
2024-02-18T17:07:47.468Z,8.40
2024-02-18T17:10:14.787Z,8.40
2024-02-18T17:12:48.519Z,8.50
2024-02-18T17:15:15.540Z,8.40
2024-02-18T17:17:42.477Z,8.50
2024-02-18T17:20:10.220Z,8.40
2024-02-18T17:22:37.423Z,8.40
2024-02-18T17:25:04.754Z,8.40
2024-02-18T17:27:32.833Z,8.50
2024-02-18T17:29:59.837Z,8.50
2024-02-18T17:32:27.986Z,8.50
2024-02-18T17:34:55.235Z,8.50
2024-02-18T17:37:22.132Z,8.50
2024-02-18T17:39:49.109Z,8.50
2024-02-18T17:42:18.355Z,8.50
2024-02-18T17:44:45.688Z,8.50
2024-02-18T17:47:12.686Z,8.50
2024-02-18T17:49:40.243Z,8.60
2024-02-18T17:52:07.520Z,8.60
2024-02-18T17:54:35.735Z,8.70
2024-02-18T17:57:02.975Z,8.70
2024-02-18T17:59:29.928Z,8.70
2024-02-18T18:01:57.255Z,8.70
2024-02-18T18:04:24.480Z,8.70
2024-02-18T18:06:51.581Z,8.70
2024-02-18T18:09:18.794Z,8.70
2024-02-18T18:11:46.020Z,8.70
2024-02-18T18:14:14.018Z,8.70
2024-02-18T18:16:41.181Z,8.80
2024-02-18T18:19:12.358Z,8.80
2024-02-18T18:21:39.397Z,8.80
2024-02-18T18:24:06.664Z,8.90
2024-02-18T18:26:34.671Z,8.90
2024-02-18T18:29:02.156Z,8.90
2024-02-18T18:31:29.272Z,9.00
2024-02-18T18:33:56.648Z,9.00
2024-02-18T18:36:23.650Z,9.10
2024-02-18T18:38:50.933Z,9.10
2024-02-18T18:41:18.089Z,9.10
2024-02-18T18:43:45.163Z,9.10
2024-02-18T18:46:12.193Z,9.20
2024-02-18T18:48:39.734Z,9.20
2024-02-18T18:51:06.711Z,9.20
2024-02-18T18:53:35.064Z,9.20
2024-02-18T18:56:02.223Z,9.30
2024-02-18T18:58:29.206Z,9.30
2024-02-18T19:00:56.333Z,9.40
2024-02-18T19:03:23.548Z,9.40
2024-02-18T19:05:50.460Z,9.40
2024-02-18T19:08:17.536Z,9.50
2024-02-18T19:10:44.880Z,9.40
2024-02-18T19:13:23.569Z,9.50
2024-02-18T19:15:58.869Z,9.50
2024-02-18T19:18:25.955Z,9.50
2024-02-18T19:20:53.026Z,9.50
2024-02-18T19:23:21.708Z,9.50
2024-02-18T19:25:48.707Z,9.60
2024-02-18T19:28:16.057Z,9.60
2024-02-18T19:30:43.388Z,9.70
2024-02-18T19:33:10.572Z,9.70
2024-02-18T19:35:38.235Z,9.80
2024-02-18T19:38:05.805Z,9.80
2024-02-18T19:40:33.267Z,9.80
2024-02-18T19:43:00.582Z,9.80
2024-02-18T19:45:28.176Z,9.90
2024-02-18T19:47:58.211Z,9.80
2024-02-18T19:50:26.084Z,9.80
2024-02-18T19:52:53.465Z,9.80
2024-02-18T19:55:20.682Z,9.80
2024-02-18T19:57:47.940Z,9.80
2024-02-18T20:00:15.310Z,9.80
2024-02-18T20:02:42.380Z,9.80
2024-02-18T20:05:09.819Z,9.80
2024-02-18T20:07:37.093Z,9.80
2024-02-18T20:10:04.617Z,9.70
2024-02-18T20:12:31.958Z,9.70
2024-02-18T20:14:59.352Z,9.70
2024-02-18T20:17:27.017Z,9.60
2024-02-18T20:19:54.384Z,9.60
2024-02-18T20:22:21.824Z,9.60
2024-02-18T20:24:49.186Z,9.60
2024-02-18T20:27:16.447Z,9.50
2024-02-18T20:29:43.462Z,9.50
2024-02-18T20:32:10.554Z,9.50
2024-02-18T20:34:38.145Z,9.40
2024-02-18T20:37:08.155Z,9.40
2024-02-18T20:39:36.570Z,9.40
2024-02-18T20:42:03.749Z,9.30
2024-02-18T20:44:31.111Z,9.30
2024-02-18T20:46:58.147Z,9.30
2024-02-18T20:49:27.225Z,9.30
2024-02-18T20:51:54.601Z,9.30
2024-02-18T20:54:21.626Z,9.30
2024-02-18T20:56:49.115Z,9.30
2024-02-18T20:59:16.300Z,9.20
2024-02-18T21:01:44.084Z,9.20
2024-02-18T21:04:11.171Z,9.20
2024-02-18T21:06:38.452Z,9.20
2024-02-18T21:09:05.531Z,9.20
2024-02-18T21:11:32.683Z,9.10
2024-02-18T21:13:59.818Z,9.10
2024-02-18T21:16:26.735Z,9.10
2024-02-18T21:18:53.897Z,9.10
2024-02-18T21:21:20.965Z,9.10
2024-02-18T21:23:49.002Z,9.10
2024-02-18T21:26:20.095Z,9.10
2024-02-18T21:28:50.244Z,9.10
2024-02-18T21:33:45.901Z,9.00
2024-02-18T21:36:19.068Z,9.10
2024-02-18T21:38:46.091Z,9.00
2024-02-18T21:41:13.041Z,9.00
2024-02-18T21:43:40.732Z,9.00
2024-02-18T21:46:11.611Z,8.90
2024-02-18T21:48:38.648Z,9.00
2024-02-18T21:51:06.643Z,9.00
2024-02-18T21:53:33.551Z,8.90
2024-02-18T21:56:00.371Z,8.90
2024-02-18T21:58:29.303Z,8.90
2024-02-18T22:00:59.070Z,8.90
2024-02-18T22:03:25.934Z,8.90
2024-02-18T22:05:52.981Z,8.80
2024-02-18T22:08:19.849Z,8.80
2024-02-18T22:10:46.687Z,8.80
2024-02-18T22:13:14.497Z,8.70
2024-02-18T22:15:41.982Z,8.80
2024-02-18T22:18:08.972Z,8.70
2024-02-18T22:20:36.051Z,8.70
2024-02-18T22:23:03.542Z,8.70
2024-02-18T22:25:30.503Z,8.60
2024-02-18T22:27:57.622Z,8.60
2024-02-18T22:30:24.642Z,8.60
2024-02-18T22:32:51.650Z,8.60
2024-02-18T22:35:19.298Z,8.50
2024-02-18T22:37:46.205Z,8.50
2024-02-18T22:40:13.395Z,8.40
2024-02-18T22:42:40.523Z,8.40
2024-02-18T22:45:07.784Z,8.40
2024-02-18T22:47:34.753Z,8.30
2024-02-18T22:50:01.867Z,8.30
2024-02-18T22:52:28.705Z,8.30
2024-02-18T22:54:55.756Z,8.20
2024-02-18T22:57:22.670Z,8.20
2024-02-18T22:59:49.496Z,8.30
2024-02-18T23:02:16.529Z,8.20
2024-02-18T23:04:43.417Z,8.20
2024-02-18T23:07:10.253Z,8.20
2024-02-18T23:09:37.201Z,8.00
2024-02-18T23:12:04.368Z,8.20
2024-02-18T23:14:31.231Z,8.20
2024-02-18T23:16:58.256Z,8.20
2024-02-18T23:19:25.218Z,8.30
2024-02-18T23:21:52.052Z,8.30
2024-02-18T23:24:19.063Z,8.40
2024-02-18T23:26:45.860Z,8.40
2024-02-18T23:29:12.667Z,8.50
2024-02-18T23:31:39.762Z,8.50
2024-02-18T23:34:08.715Z,8.50
2024-02-18T23:36:35.726Z,8.60
2024-02-18T23:39:02.709Z,8.60
2024-02-18T23:41:29.706Z,8.60
2024-02-18T23:43:56.765Z,8.60
2024-02-18T23:46:23.810Z,8.60
2024-02-18T23:48:50.793Z,8.60
2024-02-18T23:51:17.630Z,8.60
2024-02-18T23:53:44.717Z,8.70
2024-02-18T23:56:12.098Z,8.60
2024-02-18T23:58:38.968Z,8.60
